sensor_id;sensor_type;location;lat;lon;timestamp;temperature;humidity
28374;DHT22;15616;40.148;-102.718;2022-11-20T00:00:56;20.40;50.30
28374;DHT22;15616;40.148;-102.718;2022-11-20T00:03:22;20.40;50.20
28374;DHT22;15616;40.148;-102.718;2022-11-20T00:05:48;20.40;50.20
28374;DHT22;15616;40.148;-102.718;2022-11-20T00:08:13;20.40;50.30
28374;DHT22;15616;40.148;-102.718;2022-11-20T00:10:40;20.40;50.20
28374;DHT22;15616;40.148;-102.718;2022-11-20T00:13:07;20.40;50.30
28374;DHT22;15616;40.148;-102.718;2022-11-20T00:15:33;20.40;50.20
28374;DHT22;15616;40.148;-102.718;2022-11-20T00:17:59;20.40;50.30
28374;DHT22;15616;40.148;-102.718;2022-11-20T00:20:25;20.40;50.30
28374;DHT22;15616;40.148;-102.718;2022-11-20T00:22:51;20.40;50.30
28374;DHT22;15616;40.148;-102.718;2022-11-20T00:25:18;20.40;50.30
28374;DHT22;15616;40.148;-102.718;2022-11-20T00:27:44;20.40;50.30
28374;DHT22;15616;40.148;-102.718;2022-11-20T00:30:10;20.40;50.30
28374;DHT22;15616;40.148;-102.718;2022-11-20T00:32:35;20.40;50.30
28374;DHT22;15616;40.148;-102.718;2022-11-20T00:35:01;20.30;50.20
28374;DHT22;15616;40.148;-102.718;2022-11-20T00:37:27;20.30;50.20
28374;DHT22;15616;40.148;-102.718;2022-11-20T00:39:53;20.30;50.20
28374;DHT22;15616;40.148;-102.718;2022-11-20T00:42:19;20.30;50.30
28374;DHT22;15616;40.148;-102.718;2022-11-20T00:44:45;20.30;50.20
28374;DHT22;15616;40.148;-102.718;2022-11-20T00:47:11;20.30;50.30
28374;DHT22;15616;40.148;-102.718;2022-11-20T00:49:37;20.30;50.30
28374;DHT22;15616;40.148;-102.718;2022-11-20T00:52:02;20.30;50.30
28374;DHT22;15616;40.148;-102.718;2022-11-20T00:54:28;20.30;50.30
28374;DHT22;15616;40.148;-102.718;2022-11-20T00:56:54;20.30;50.30
28374;DHT22;15616;40.148;-102.718;2022-11-20T00:59:20;20.30;50.30
28374;DHT22;15616;40.148;-102.718;2022-11-20T01:01:46;20.30;50.30
28374;DHT22;15616;40.148;-102.718;2022-11-20T01:04:12;20.30;50.30
28374;DHT22;15616;40.148;-102.718;2022-11-20T01:06:39;20.30;50.30
28374;DHT22;15616;40.148;-102.718;2022-11-20T01:09:11;20.30;50.30
28374;DHT22;15616;40.148;-102.718;2022-11-20T01:11:40;20.30;50.30
28374;DHT22;15616;40.148;-102.718;2022-11-20T01:14:10;20.30;50.30
28374;DHT22;15616;40.148;-102.718;2022-11-20T01:16:42;20.30;50.30
28374;DHT22;15616;40.148;-102.718;2022-11-20T01:19:15;20.30;50.30
28374;DHT22;15616;40.148;-102.718;2022-11-20T01:21:42;20.30;51.00
28374;DHT22;15616;40.148;-102.718;2022-11-20T01:24:11;20.30;51.00
28374;DHT22;15616;40.148;-102.718;2022-11-20T01:26:39;20.30;50.30
28374;DHT22;15616;40.148;-102.718;2022-11-20T01:29:07;20.30;50.30
28374;DHT22;15616;40.148;-102.718;2022-11-20T01:31:36;20.30;50.30
28374;DHT22;15616;40.148;-102.718;2022-11-20T01:34:14;20.30;50.30
28374;DHT22;15616;40.148;-102.718;2022-11-20T01:36:41;20.30;50.30
28374;DHT22;15616;40.148;-102.718;2022-11-20T01:39:18;20.30;50.30
28374;DHT22;15616;40.148;-102.718;2022-11-20T01:41:45;20.30;50.30
28374;DHT22;15616;40.148;-102.718;2022-11-20T01:44:53;20.30;50.30
28374;DHT22;15616;40.148;-102.718;2022-11-20T01:47:33;20.30;50.30
28374;DHT22;15616;40.148;-102.718;2022-11-20T01:53:05;20.30;50.40
28374;DHT22;15616;40.148;-102.718;2022-11-20T01:55:36;20.30;50.30
28374;DHT22;15616;40.148;-102.718;2022-11-20T01:58:04;20.20;50.30
28374;DHT22;15616;40.148;-102.718;2022-11-20T02:00:30;20.30;50.40
28374;DHT22;15616;40.148;-102.718;2022-11-20T02:03:01;20.20;50.30
28374;DHT22;15616;40.148;-102.718;2022-11-20T02:08:20;20.20;50.30
28374;DHT22;15616;40.148;-102.718;2022-11-20T02:10:47;20.20;50.30
28374;DHT22;15616;40.148;-102.718;2022-11-20T02:13:13;20.20;50.30
28374;DHT22;15616;40.148;-102.718;2022-11-20T02:15:57;20.20;50.30
28374;DHT22;15616;40.148;-102.718;2022-11-20T02:18:23;20.20;50.40
28374;DHT22;15616;40.148;-102.718;2022-11-20T02:20:54;20.20;50.30
28374;DHT22;15616;40.148;-102.718;2022-11-20T02:24:18;20.20;50.30
28374;DHT22;15616;40.148;-102.718;2022-11-20T02:26:20;20.20;50.30
28374;DHT22;15616;40.148;-102.718;2022-11-20T02:28:47;20.20;50.30
28374;DHT22;15616;40.148;-102.718;2022-11-20T02:31:14;20.20;50.30
28374;DHT22;15616;40.148;-102.718;2022-11-20T02:33:40;20.20;50.30
28374;DHT22;15616;40.148;-102.718;2022-11-20T02:36:08;20.20;50.30
28374;DHT22;15616;40.148;-102.718;2022-11-20T02:38:37;20.20;50.40
28374;DHT22;15616;40.148;-102.718;2022-11-20T02:41:03;20.20;50.40
28374;DHT22;15616;40.148;-102.718;2022-11-20T02:43:29;20.20;50.30
28374;DHT22;15616;40.148;-102.718;2022-11-20T02:45:55;20.20;50.40
28374;DHT22;15616;40.148;-102.718;2022-11-20T02:48:20;20.20;50.40
28374;DHT22;15616;40.148;-102.718;2022-11-20T02:50:46;20.20;50.30
28374;DHT22;15616;40.148;-102.718;2022-11-20T02:53:12;20.20;50.40
28374;DHT22;15616;40.148;-102.718;2022-11-20T02:55:38;20.20;50.40
28374;DHT22;15616;40.148;-102.718;2022-11-20T02:58:04;20.20;50.40
28374;DHT22;15616;40.148;-102.718;2022-11-20T03:00:30;20.20;50.40
28374;DHT22;15616;40.148;-102.718;2022-11-20T03:02:56;20.10;50.30
28374;DHT22;15616;40.148;-102.718;2022-11-20T03:05:22;20.20;50.30
28374;DHT22;15616;40.148;-102.718;2022-11-20T03:07:48;20.10;50.30
28374;DHT22;15616;40.148;-102.718;2022-11-20T03:10:14;20.20;50.40
28374;DHT22;15616;40.148;-102.718;2022-11-20T03:12:40;20.20;50.40
28374;DHT22;15616;40.148;-102.718;2022-11-20T03:15:06;20.20;50.40
28374;DHT22;15616;40.148;-102.718;2022-11-20T03:17:32;20.20;50.40
28374;DHT22;15616;40.148;-102.718;2022-11-20T03:19:57;20.20;50.40
28374;DHT22;15616;40.148;-102.718;2022-11-20T03:22:23;20.20;50.40
28374;DHT22;15616;40.148;-102.718;2022-11-20T03:24:49;20.20;50.40
28374;DHT22;15616;40.148;-102.718;2022-11-20T03:27:15;20.20;50.40
28374;DHT22;15616;40.148;-102.718;2022-11-20T03:29:41;20.20;50.30
28374;DHT22;15616;40.148;-102.718;2022-11-20T03:32:06;20.20;50.40
28374;DHT22;15616;40.148;-102.718;2022-11-20T03:34:32;20.20;50.30
28374;DHT22;15616;40.148;-102.718;2022-11-20T03:36:58;20.20;50.40
28374;DHT22;15616;40.148;-102.718;2022-11-20T03:39:24;20.20;50.40
28374;DHT22;15616;40.148;-102.718;2022-11-20T03:41:50;20.20;50.40
28374;DHT22;15616;40.148;-102.718;2022-11-20T03:44:16;20.20;50.40
28374;DHT22;15616;40.148;-102.718;2022-11-20T03:46:42;20.10;50.40
28374;DHT22;15616;40.148;-102.718;2022-11-20T03:49:08;20.10;50.40
28374;DHT22;15616;40.148;-102.718;2022-11-20T03:51:35;20.20;50.50
28374;DHT22;15616;40.148;-102.718;2022-11-20T03:54:05;20.20;50.50
28374;DHT22;15616;40.148;-102.718;2022-11-20T03:56:34;20.20;50.50
28374;DHT22;15616;40.148;-102.718;2022-11-20T03:59:00;20.20;50.50
28374;DHT22;15616;40.148;-102.718;2022-11-20T04:01:36;20.20;50.50
28374;DHT22;15616;40.148;-102.718;2022-11-20T04:04:03;20.20;50.40
28374;DHT22;15616;40.148;-102.718;2022-11-20T04:06:34;20.20;50.40
28374;DHT22;15616;40.148;-102.718;2022-11-20T04:09:00;20.20;50.40
28374;DHT22;15616;40.148;-102.718;2022-11-20T04:11:31;20.20;50.40
28374;DHT22;15616;40.148;-102.718;2022-11-20T04:14:01;20.20;50.40
28374;DHT22;15616;40.148;-102.718;2022-11-20T04:16:29;20.20;50.40
28374;DHT22;15616;40.148;-102.718;2022-11-20T04:18:59;20.20;50.40
28374;DHT22;15616;40.148;-102.718;2022-11-20T04:21:26;20.20;50.30
28374;DHT22;15616;40.148;-102.718;2022-11-20T04:23:53;20.20;50.30
28374;DHT22;15616;40.148;-102.718;2022-11-20T04:26:19;20.20;50.30
28374;DHT22;15616;40.148;-102.718;2022-11-20T04:28:46;20.20;50.30
28374;DHT22;15616;40.148;-102.718;2022-11-20T04:31:17;20.20;50.30
28374;DHT22;15616;40.148;-102.718;2022-11-20T04:33:43;20.20;50.30
28374;DHT22;15616;40.148;-102.718;2022-11-20T04:36:18;20.10;50.20
28374;DHT22;15616;40.148;-102.718;2022-11-20T04:38:44;20.20;50.30
28374;DHT22;15616;40.148;-102.718;2022-11-20T04:41:18;20.10;50.30
28374;DHT22;15616;40.148;-102.718;2022-11-20T04:43:48;20.20;50.30
28374;DHT22;15616;40.148;-102.718;2022-11-20T04:46:15;20.20;50.30
28374;DHT22;15616;40.148;-102.718;2022-11-20T04:48:41;20.10;50.30
28374;DHT22;15616;40.148;-102.718;2022-11-20T04:51:07;20.20;50.30
28374;DHT22;15616;40.148;-102.718;2022-11-20T04:53:33;20.10;50.30
28374;DHT22;15616;40.148;-102.718;2022-11-20T04:56:00;20.10;50.30
28374;DHT22;15616;40.148;-102.718;2022-11-20T04:58:26;20.20;50.30
28374;DHT22;15616;40.148;-102.718;2022-11-20T05:00:52;20.10;50.30
28374;DHT22;15616;40.148;-102.718;2022-11-20T05:03:18;20.20;50.30
28374;DHT22;15616;40.148;-102.718;2022-11-20T05:05:44;20.20;50.30
28374;DHT22;15616;40.148;-102.718;2022-11-20T05:08:10;20.20;50.30
28374;DHT22;15616;40.148;-102.718;2022-11-20T05:10:35;20.10;50.30
28374;DHT22;15616;40.148;-102.718;2022-11-20T05:13:01;20.10;50.30
28374;DHT22;15616;40.148;-102.718;2022-11-20T05:15:27;20.10;50.30
28374;DHT22;15616;40.148;-102.718;2022-11-20T05:17:53;20.10;50.20
28374;DHT22;15616;40.148;-102.718;2022-11-20T05:20:19;20.10;50.30
28374;DHT22;15616;40.148;-102.718;2022-11-20T05:22:45;20.10;50.20
28374;DHT22;15616;40.148;-102.718;2022-11-20T05:25:11;20.10;50.20
28374;DHT22;15616;40.148;-102.718;2022-11-20T05:27:37;20.10;50.20
28374;DHT22;15616;40.148;-102.718;2022-11-20T05:30:04;20.10;50.30
28374;DHT22;15616;40.148;-102.718;2022-11-20T05:32:30;20.10;50.30
28374;DHT22;15616;40.148;-102.718;2022-11-20T05:34:56;20.10;50.30
28374;DHT22;15616;40.148;-102.718;2022-11-20T05:37:22;20.10;50.30
28374;DHT22;15616;40.148;-102.718;2022-11-20T05:39:48;20.10;50.30
28374;DHT22;15616;40.148;-102.718;2022-11-20T05:42:14;20.10;50.30
28374;DHT22;15616;40.148;-102.718;2022-11-20T05:45:02;20.10;50.30
28374;DHT22;15616;40.148;-102.718;2022-11-20T05:47:32;20.10;50.30
28374;DHT22;15616;40.148;-102.718;2022-11-20T05:49:59;20.10;50.30
28374;DHT22;15616;40.148;-102.718;2022-11-20T05:52:28;20.10;50.40
28374;DHT22;15616;40.148;-102.718;2022-11-20T05:54:54;20.10;50.30
28374;DHT22;15616;40.148;-102.718;2022-11-20T05:57:20;20.10;50.30
28374;DHT22;15616;40.148;-102.718;2022-11-20T05:59:46;20.10;50.30
28374;DHT22;15616;40.148;-102.718;2022-11-20T06:02:11;20.10;50.30
28374;DHT22;15616;40.148;-102.718;2022-11-20T06:04:37;20.10;50.30
28374;DHT22;15616;40.148;-102.718;2022-11-20T06:07:05;20.20;50.30
28374;DHT22;15616;40.148;-102.718;2022-11-20T06:09:31;20.20;50.30
28374;DHT22;15616;40.148;-102.718;2022-11-20T06:11:57;20.20;50.30
28374;DHT22;15616;40.148;-102.718;2022-11-20T06:14:23;20.20;50.20
28374;DHT22;15616;40.148;-102.718;2022-11-20T06:16:49;20.20;50.20
28374;DHT22;15616;40.148;-102.718;2022-11-20T06:19:15;20.20;50.20
28374;DHT22;15616;40.148;-102.718;2022-11-20T06:21:41;20.20;50.20
28374;DHT22;15616;40.148;-102.718;2022-11-20T06:24:08;20.20;50.20
28374;DHT22;15616;40.148;-102.718;2022-11-20T06:26:34;20.20;50.20
28374;DHT22;15616;40.148;-102.718;2022-11-20T06:29:00;20.20;50.20
28374;DHT22;15616;40.148;-102.718;2022-11-20T06:31:26;20.20;50.30
28374;DHT22;15616;40.148;-102.718;2022-11-20T06:33:52;20.10;50.20
28374;DHT22;15616;40.148;-102.718;2022-11-20T06:36:20;20.10;50.20
28374;DHT22;15616;40.148;-102.718;2022-11-20T06:38:47;20.20;50.20
28374;DHT22;15616;40.148;-102.718;2022-11-20T06:41:18;20.10;50.20
28374;DHT22;15616;40.148;-102.718;2022-11-20T06:43:44;20.20;50.20
28374;DHT22;15616;40.148;-102.718;2022-11-20T06:46:12;20.10;50.20
28374;DHT22;15616;40.148;-102.718;2022-11-20T06:48:38;20.10;50.20
28374;DHT22;15616;40.148;-102.718;2022-11-20T06:51:06;20.10;50.30
28374;DHT22;15616;40.148;-102.718;2022-11-20T06:53:32;20.10;50.30
28374;DHT22;15616;40.148;-102.718;2022-11-20T06:55:58;20.10;50.30
28374;DHT22;15616;40.148;-102.718;2022-11-20T06:58:27;20.10;51.00
28374;DHT22;15616;40.148;-102.718;2022-11-20T07:00:53;20.10;50.30
28374;DHT22;15616;40.148;-102.718;2022-11-20T07:03:19;20.10;50.30
28374;DHT22;15616;40.148;-102.718;2022-11-20T07:05:45;20.10;50.30
28374;DHT22;15616;40.148;-102.718;2022-11-20T07:08:12;20.10;50.30
28374;DHT22;15616;40.148;-102.718;2022-11-20T07:10:38;20.10;50.30
28374;DHT22;15616;40.148;-102.718;2022-11-20T07:13:04;20.10;50.20
28374;DHT22;15616;40.148;-102.718;2022-11-20T07:15:30;20.10;50.20
28374;DHT22;15616;40.148;-102.718;2022-11-20T07:17:59;20.10;50.20
28374;DHT22;15616;40.148;-102.718;2022-11-20T07:20:25;20.10;50.20
28374;DHT22;15616;40.148;-102.718;2022-11-20T07:22:57;20.10;50.20
28374;DHT22;15616;40.148;-102.718;2022-11-20T07:25:25;20.10;50.10
28374;DHT22;15616;40.148;-102.718;2022-11-20T07:27:51;20.10;50.10
28374;DHT22;15616;40.148;-102.718;2022-11-20T07:30:18;20.10;50.10
28374;DHT22;15616;40.148;-102.718;2022-11-20T07:32:50;20.10;50.10
28374;DHT22;15616;40.148;-102.718;2022-11-20T07:35:16;20.20;50.10
28374;DHT22;15616;40.148;-102.718;2022-11-20T07:37:42;20.10;50.10
28374;DHT22;15616;40.148;-102.718;2022-11-20T07:40:08;20.20;50.10
28374;DHT22;15616;40.148;-102.718;2022-11-20T07:42:34;20.20;50.10
28374;DHT22;15616;40.148;-102.718;2022-11-20T07:45:00;20.20;50.10
28374;DHT22;15616;40.148;-102.718;2022-11-20T07:47:26;20.10;50.10
28374;DHT22;15616;40.148;-102.718;2022-11-20T07:49:52;20.20;50.10
28374;DHT22;15616;40.148;-102.718;2022-11-20T07:52:17;20.10;50.10
28374;DHT22;15616;40.148;-102.718;2022-11-20T07:54:43;20.10;50.10
28374;DHT22;15616;40.148;-102.718;2022-11-20T07:57:09;20.10;50.10
28374;DHT22;15616;40.148;-102.718;2022-11-20T07:59:36;20.10;50.10
28374;DHT22;15616;40.148;-102.718;2022-11-20T08:02:02;20.10;50.10
28374;DHT22;15616;40.148;-102.718;2022-11-20T08:04:28;20.10;50.10
28374;DHT22;15616;40.148;-102.718;2022-11-20T08:06:53;20.10;50.10
28374;DHT22;15616;40.148;-102.718;2022-11-20T08:09:19;20.10;50.10
28374;DHT22;15616;40.148;-102.718;2022-11-20T08:11:45;20.10;50.10
28374;DHT22;15616;40.148;-102.718;2022-11-20T08:14:30;20.10;50.10
28374;DHT22;15616;40.148;-102.718;2022-11-20T08:16:56;20.10;50.10
28374;DHT22;15616;40.148;-102.718;2022-11-20T08:19:22;20.10;50.10
28374;DHT22;15616;40.148;-102.718;2022-11-20T08:21:47;20.10;50.10
28374;DHT22;15616;40.148;-102.718;2022-11-20T08:24:13;20.10;50.10
28374;DHT22;15616;40.148;-102.718;2022-11-20T08:26:40;20.10;50.10
28374;DHT22;15616;40.148;-102.718;2022-11-20T08:29:06;20.10;50.00
28374;DHT22;15616;40.148;-102.718;2022-11-20T08:31:33;20.10;50.00
28374;DHT22;15616;40.148;-102.718;2022-11-20T08:33:59;20.10;50.00
28374;DHT22;15616;40.148;-102.718;2022-11-20T08:36:25;20.10;50.00
28374;DHT22;15616;40.148;-102.718;2022-11-20T08:38:53;20.10;50.00
28374;DHT22;15616;40.148;-102.718;2022-11-20T08:41:20;20.10;50.00
28374;DHT22;15616;40.148;-102.718;2022-11-20T08:43:49;20.10;50.00
28374;DHT22;15616;40.148;-102.718;2022-11-20T08:46:16;20.10;50.00
28374;DHT22;15616;40.148;-102.718;2022-11-20T08:48:42;20.10;50.00
28374;DHT22;15616;40.148;-102.718;2022-11-20T08:51:09;20.10;50.00
28374;DHT22;15616;40.148;-102.718;2022-11-20T08:53:35;20.10;50.00
28374;DHT22;15616;40.148;-102.718;2022-11-20T08:56:01;20.10;50.00
28374;DHT22;15616;40.148;-102.718;2022-11-20T08:58:27;20.10;50.60
28374;DHT22;15616;40.148;-102.718;2022-11-20T09:00:53;20.10;49.90
28374;DHT22;15616;40.148;-102.718;2022-11-20T09:03:19;20.10;49.90
28374;DHT22;15616;40.148;-102.718;2022-11-20T09:05:45;20.10;49.90
28374;DHT22;15616;40.148;-102.718;2022-11-20T09:08:11;20.10;50.00
28374;DHT22;15616;40.148;-102.718;2022-11-20T09:10:37;20.10;50.00
28374;DHT22;15616;40.148;-102.718;2022-11-20T09:13:06;20.10;50.00
28374;DHT22;15616;40.148;-102.718;2022-11-20T09:15:33;20.10;50.00
28374;DHT22;15616;40.148;-102.718;2022-11-20T09:18:01;20.10;50.00
28374;DHT22;15616;40.148;-102.718;2022-11-20T09:20:29;20.10;50.00
28374;DHT22;15616;40.148;-102.718;2022-11-20T09:22:55;20.10;50.00
28374;DHT22;15616;40.148;-102.718;2022-11-20T09:25:22;20.10;49.90
28374;DHT22;15616;40.148;-102.718;2022-11-20T09:27:48;20.10;49.90
28374;DHT22;15616;40.148;-102.718;2022-11-20T09:30:19;20.10;49.90
28374;DHT22;15616;40.148;-102.718;2022-11-20T09:32:45;20.10;50.00
28374;DHT22;15616;40.148;-102.718;2022-11-20T09:35:11;20.10;50.00
28374;DHT22;15616;40.148;-102.718;2022-11-20T09:37:37;20.10;50.00
28374;DHT22;15616;40.148;-102.718;2022-11-20T09:40:04;20.10;50.00
28374;DHT22;15616;40.148;-102.718;2022-11-20T09:42:54;20.10;50.00
28374;DHT22;15616;40.148;-102.718;2022-11-20T09:45:46;20.20;50.00
28374;DHT22;15616;40.148;-102.718;2022-11-20T09:54:20;20.10;49.90
28374;DHT22;15616;40.148;-102.718;2022-11-20T09:56:52;20.20;50.00
28374;DHT22;15616;40.148;-102.718;2022-11-20T09:59:41;20.20;50.00
28374;DHT22;15616;40.148;-102.718;2022-11-20T10:05:45;20.30;49.90
28374;DHT22;15616;40.148;-102.718;2022-11-20T10:08:42;20.20;49.90
28374;DHT22;15616;40.148;-102.718;2022-11-20T10:25:18;20.20;49.80
28374;DHT22;15616;40.148;-102.718;2022-11-20T10:28:01;20.30;49.90
28374;DHT22;15616;40.148;-102.718;2022-11-20T10:30:29;20.30;49.80
28374;DHT22;15616;40.148;-102.718;2022-11-20T10:33:05;20.20;49.80
28374;DHT22;15616;40.148;-102.718;2022-11-20T10:35:52;20.30;49.80
28374;DHT22;15616;40.148;-102.718;2022-11-20T10:41:00;20.30;49.80
28374;DHT22;15616;40.148;-102.718;2022-11-20T10:43:46;20.20;49.80
28374;DHT22;15616;40.148;-102.718;2022-11-20T10:46:23;20.20;49.80
28374;DHT22;15616;40.148;-102.718;2022-11-20T10:48:51;20.30;49.80
28374;DHT22;15616;40.148;-102.718;2022-11-20T10:56:54;20.20;49.70
28374;DHT22;15616;40.148;-102.718;2022-11-20T11:02:23;20.20;49.80
28374;DHT22;15616;40.148;-102.718;2022-11-20T11:04:52;20.30;49.80
28374;DHT22;15616;40.148;-102.718;2022-11-20T11:07:33;20.20;49.70
28374;DHT22;15616;40.148;-102.718;2022-11-20T11:10:01;20.30;49.70
28374;DHT22;15616;40.148;-102.718;2022-11-20T11:12:46;20.20;49.70
28374;DHT22;15616;40.148;-102.718;2022-11-20T11:15:40;20.30;50.40
28374;DHT22;15616;40.148;-102.718;2022-11-20T11:18:10;20.30;49.60
28374;DHT22;15616;40.148;-102.718;2022-11-20T11:20:37;20.20;49.70
28374;DHT22;15616;40.148;-102.718;2022-11-20T11:23:03;20.20;49.70
28374;DHT22;15616;40.148;-102.718;2022-11-20T11:25:35;20.20;49.70
28374;DHT22;15616;40.148;-102.718;2022-11-20T11:28:22;20.30;49.70
28374;DHT22;15616;40.148;-102.718;2022-11-20T11:30:52;20.30;49.60
28374;DHT22;15616;40.148;-102.718;2022-11-20T11:33:23;20.20;49.60
28374;DHT22;15616;40.148;-102.718;2022-11-20T11:36:01;20.30;49.70
28374;DHT22;15616;40.148;-102.718;2022-11-20T11:38:35;20.30;49.60
28374;DHT22;15616;40.148;-102.718;2022-11-20T11:41:03;20.30;49.60
28374;DHT22;15616;40.148;-102.718;2022-11-20T11:43:32;20.20;49.60
28374;DHT22;15616;40.148;-102.718;2022-11-20T11:49:15;20.30;49.60
28374;DHT22;15616;40.148;-102.718;2022-11-20T11:54:50;20.30;49.60
28374;DHT22;15616;40.148;-102.718;2022-11-20T12:00:15;20.20;49.60
28374;DHT22;15616;40.148;-102.718;2022-11-20T12:07:47;20.20;49.60
28374;DHT22;15616;40.148;-102.718;2022-11-20T12:16:00;20.20;49.60
28374;DHT22;15616;40.148;-102.718;2022-11-20T12:18:27;20.20;49.70
28374;DHT22;15616;40.148;-102.718;2022-11-20T12:29:48;20.30;49.60
28374;DHT22;15616;40.148;-102.718;2022-11-20T12:40:41;20.30;49.60
28374;DHT22;15616;40.148;-102.718;2022-11-20T12:43:22;20.30;49.60
28374;DHT22;15616;40.148;-102.718;2022-11-20T12:46:38;20.30;49.70
28374;DHT22;15616;40.148;-102.718;2022-11-20T12:53:16;20.30;49.70
28374;DHT22;15616;40.148;-102.718;2022-11-20T12:55:42;20.30;49.60
28374;DHT22;15616;40.148;-102.718;2022-11-20T13:04:02;20.20;49.60
28374;DHT22;15616;40.148;-102.718;2022-11-20T13:06:33;20.20;49.70
28374;DHT22;15616;40.148;-102.718;2022-11-20T13:08:59;20.20;49.60
28374;DHT22;15616;40.148;-102.718;2022-11-20T13:11:44;20.30;49.60
28374;DHT22;15616;40.148;-102.718;2022-11-20T13:14:50;20.30;49.60
28374;DHT22;15616;40.148;-102.718;2022-11-20T13:20:15;20.30;49.60
28374;DHT22;15616;40.148;-102.718;2022-11-20T13:22:47;20.30;49.60
28374;DHT22;15616;40.148;-102.718;2022-11-20T13:25:36;20.30;49.60
28374;DHT22;15616;40.148;-102.718;2022-11-20T13:28:27;20.30;49.60
28374;DHT22;15616;40.148;-102.718;2022-11-20T13:30:52;20.30;49.60
28374;DHT22;15616;40.148;-102.718;2022-11-20T13:33:38;20.30;49.60
28374;DHT22;15616;40.148;-102.718;2022-11-20T13:36:19;20.30;49.60
28374;DHT22;15616;40.148;-102.718;2022-11-20T13:38:55;20.30;49.60
28374;DHT22;15616;40.148;-102.718;2022-11-20T13:43:57;20.30;49.60
28374;DHT22;15616;40.148;-102.718;2022-11-20T13:46:23;20.30;49.60
28374;DHT22;15616;40.148;-102.718;2022-11-20T13:49:10;20.30;49.60
28374;DHT22;15616;40.148;-102.718;2022-11-20T13:51:44;20.30;49.60
28374;DHT22;15616;40.148;-102.718;2022-11-20T13:54:32;20.30;49.60
28374;DHT22;15616;40.148;-102.718;2022-11-20T13:59:58;20.30;49.70
28374;DHT22;15616;40.148;-102.718;2022-11-20T14:02:28;20.30;49.60
28374;DHT22;15616;40.148;-102.718;2022-11-20T14:04:58;20.30;49.70
28374;DHT22;15616;40.148;-102.718;2022-11-20T14:07:37;20.30;49.60
28374;DHT22;15616;40.148;-102.718;2022-11-20T14:10:18;20.30;49.60
28374;DHT22;15616;40.148;-102.718;2022-11-20T14:12:44;20.30;49.60
28374;DHT22;15616;40.148;-102.718;2022-11-20T14:15:32;20.30;49.60
28374;DHT22;15616;40.148;-102.718;2022-11-20T14:17:59;20.30;49.60
28374;DHT22;15616;40.148;-102.718;2022-11-20T14:20:28;20.20;49.60
28374;DHT22;15616;40.148;-102.718;2022-11-20T14:22:55;20.30;49.70
28374;DHT22;15616;40.148;-102.718;2022-11-20T14:25:25;20.20;49.60
28374;DHT22;15616;40.148;-102.718;2022-11-20T14:28:01;20.30;49.70
28374;DHT22;15616;40.148;-102.718;2022-11-20T14:30:35;20.30;49.70
28374;DHT22;15616;40.148;-102.718;2022-11-20T14:33:04;20.30;49.70
28374;DHT22;15616;40.148;-102.718;2022-11-20T14:35:35;20.30;49.70
28374;DHT22;15616;40.148;-102.718;2022-11-20T14:38:03;20.30;49.70
28374;DHT22;15616;40.148;-102.718;2022-11-20T14:40:35;20.30;49.70
28374;DHT22;15616;40.148;-102.718;2022-11-20T14:43:06;20.30;49.70
28374;DHT22;15616;40.148;-102.718;2022-11-20T14:45:42;20.30;49.70
28374;DHT22;15616;40.148;-102.718;2022-11-20T14:48:09;20.20;49.70
28374;DHT22;15616;40.148;-102.718;2022-11-20T14:50:37;20.20;49.70
28374;DHT22;15616;40.148;-102.718;2022-11-20T14:53:03;20.20;49.70
28374;DHT22;15616;40.148;-102.718;2022-11-20T14:55:37;20.20;49.70
28374;DHT22;15616;40.148;-102.718;2022-11-20T14:58:05;20.30;49.70
28374;DHT22;15616;40.148;-102.718;2022-11-20T15:00:33;20.20;49.70
28374;DHT22;15616;40.148;-102.718;2022-11-20T15:03:00;20.20;49.70
28374;DHT22;15616;40.148;-102.718;2022-11-20T15:05:45;20.20;49.70
28374;DHT22;15616;40.148;-102.718;2022-11-20T15:08:13;20.30;49.70
28374;DHT22;15616;40.148;-102.718;2022-11-20T15:10:45;20.20;49.70
28374;DHT22;15616;40.148;-102.718;2022-11-20T15:13:15;20.20;49.70
28374;DHT22;15616;40.148;-102.718;2022-11-20T15:15:55;20.20;49.80
28374;DHT22;15616;40.148;-102.718;2022-11-20T15:18:24;20.20;49.70
28374;DHT22;15616;40.148;-102.718;2022-11-20T15:20:55;20.20;49.80
28374;DHT22;15616;40.148;-102.718;2022-11-20T15:23:21;20.20;49.80
28374;DHT22;15616;40.148;-102.718;2022-11-20T15:25:48;20.20;49.80
28374;DHT22;15616;40.148;-102.718;2022-11-20T15:28:30;20.20;49.80
28374;DHT22;15616;40.148;-102.718;2022-11-20T15:30:57;20.20;49.80
28374;DHT22;15616;40.148;-102.718;2022-11-20T15:33:23;20.20;49.80
28374;DHT22;15616;40.148;-102.718;2022-11-20T15:35:49;20.20;49.80
28374;DHT22;15616;40.148;-102.718;2022-11-20T15:38:15;20.20;49.80
28374;DHT22;15616;40.148;-102.718;2022-11-20T15:40:41;20.20;49.80
28374;DHT22;15616;40.148;-102.718;2022-11-20T15:43:07;20.20;49.80
28374;DHT22;15616;40.148;-102.718;2022-11-20T15:45:44;20.20;49.80
28374;DHT22;15616;40.148;-102.718;2022-11-20T15:48:14;20.20;49.80
28374;DHT22;15616;40.148;-102.718;2022-11-20T15:53:29;20.20;49.80
28374;DHT22;15616;40.148;-102.718;2022-11-20T15:55:55;20.20;49.90
28374;DHT22;15616;40.148;-102.718;2022-11-20T15:58:21;20.20;49.90
28374;DHT22;15616;40.148;-102.718;2022-11-20T16:00:49;20.20;49.90
28374;DHT22;15616;40.148;-102.718;2022-11-20T16:03:15;20.20;49.90
28374;DHT22;15616;40.148;-102.718;2022-11-20T16:05:42;20.20;49.80
28374;DHT22;15616;40.148;-102.718;2022-11-20T16:08:08;20.20;49.90
28374;DHT22;15616;40.148;-102.718;2022-11-20T16:10:34;20.20;49.90
28374;DHT22;15616;40.148;-102.718;2022-11-20T16:13:01;20.20;49.90
28374;DHT22;15616;40.148;-102.718;2022-11-20T16:15:55;20.20;49.90
28374;DHT22;15616;40.148;-102.718;2022-11-20T16:18:22;20.20;49.90
28374;DHT22;15616;40.148;-102.718;2022-11-20T16:20:50;20.20;49.90
28374;DHT22;15616;40.148;-102.718;2022-11-20T16:23:16;20.20;50.00
28374;DHT22;15616;40.148;-102.718;2022-11-20T16:25:43;20.20;49.90
28374;DHT22;15616;40.148;-102.718;2022-11-20T16:28:09;20.20;50.00
28374;DHT22;15616;40.148;-102.718;2022-11-20T16:30:35;20.20;50.00
28374;DHT22;15616;40.148;-102.718;2022-11-20T16:33:02;20.20;50.00
28374;DHT22;15616;40.148;-102.718;2022-11-20T16:35:29;20.20;50.00
28374;DHT22;15616;40.148;-102.718;2022-11-20T16:37:56;20.20;50.00
28374;DHT22;15616;40.148;-102.718;2022-11-20T16:40:23;20.20;50.00